Hauptseite
METAR-TAF:

METAR-TAF

Flughäfen :

Majuro, Majuro Atoll, Marshallinseln

Flughafen Marshallinseln

Breite: 07-04N, Länge: 171-17E, Höhe: 2 m

Beobachtung

Neuester Wetterbericht von vor 35 Minuten, um 01:52 UTC
Wind 8 kt aus Nordost
Temperatur 31°C
Luftfeuchtigkeit 71%
Luftdruck 1012 hPa
Sichtweite: 24.1 km
Leicht bewölkt in der Höhe von 1500 ft
Aufgelockert bewölkt in der Höhe von 12000 ft
Aufgelockert bewölkt in der Höhe von 30000 ft

METAR: PKMJ 230152Z 05008KT 15SM FEW015 SCT120 SCT300 31/25 A2989

Zeit: 14:27 (02:27 UTC)

Prognose

Neuester Wetterbericht von vor 2 Stunden und 58 Minuten, um 23:29 UTC
Gültige Prognose vom 23 um 00 UTC bis 23 um 24 UTC
Wind 10 kt aus Ost
Sichtweite: 10 km
Leicht bewölkt in der Höhe von 1500 ft
Aufgelockert bewölkt in der Höhe von 12000 ft
Schauer in der Nähe

TAF: PKMJ 222329Z 2300/2324 08010KT P6SM VCSH FEW015 SCT120

Wetterbeobachtungen und Prognosen von mehr als 4000 Flughäfen (METAR und TAF Bericht).

Die verfügbaren Stationen werden durch gelbe und rote Markierungen auf der Karte dargestellt.

Führen Sie die Maus auf sie, um den Namen der Station zu sehen.

Darauf klicken, um die Beobachtung von Wetterbeobachtungen und Prognosen zu sehen.

Um die Karte zu ändern : klicken Sie auf den grünen Tasten mit einem schwarzen Kreuz Zum Vergrößern, auf den grünen Button mit einem Gedankenstrich zu verkleinern, oder auf die grünen Pfeile für benachbarte Karten.


METAR-TAF: